createdAt,value
2017-05-26T00:00:44.871Z,61.30
2017-05-26T00:03:13.551Z,62.30
2017-05-26T00:05:41.857Z,62.50
2017-05-26T00:08:10.178Z,61.90
2017-05-26T00:10:38.885Z,62.00
2017-05-26T00:13:07.240Z,62.10
2017-05-26T00:15:35.562Z,62.20
2017-05-26T00:18:03.491Z,62.10
2017-05-26T00:20:31.029Z,62.10
2017-05-26T00:22:59.357Z,62.50
2017-05-26T00:25:28.358Z,62.70
2017-05-26T00:27:55.978Z,62.80
2017-05-26T00:30:24.324Z,63.00
2017-05-26T00:32:53.041Z,63.20
2017-05-26T00:35:21.349Z,63.30
2017-05-26T00:37:49.722Z,63.50
2017-05-26T00:40:18.489Z,63.60
2017-05-26T00:42:46.036Z,63.50
2017-05-26T00:45:14.358Z,63.60
2017-05-26T00:47:42.978Z,63.60
2017-05-26T00:50:11.320Z,63.50
2017-05-26T00:52:39.635Z,63.60
2017-05-26T00:55:08.258Z,63.70
2017-05-26T00:57:36.558Z,63.70
2017-05-26T01:00:04.875Z,63.80
2017-05-26T01:02:33.471Z,63.80
2017-05-26T01:05:01.816Z,63.90
2017-05-26T01:07:30.137Z,63.80
2017-05-26T01:09:58.841Z,63.90
2017-05-26T01:12:27.156Z,64.00
2017-05-26T01:14:55.461Z,64.20
2017-05-26T01:17:24.183Z,64.00
2017-05-26T01:19:52.485Z,64.10
2017-05-26T01:22:20.822Z,64.20
2017-05-26T01:24:49.405Z,64.10
2017-05-26T01:27:17.729Z,64.20
2017-05-26T01:29:46.041Z,64.20
2017-05-26T01:32:15.676Z,64.30
2017-05-26T01:34:45.159Z,64.40
2017-05-26T01:37:16.418Z,64.40
2017-05-26T01:39:45.594Z,64.40
2017-05-26T01:42:15.533Z,64.40
2017-05-26T01:44:44.998Z,64.40
2017-05-26T02:03:32.029Z,64.40
2017-05-26T02:06:00.338Z,66.10
2017-05-26T02:08:28.660Z,65.10
2017-05-26T02:10:57.232Z,64.60
2017-05-26T02:13:24.798Z,64.70
2017-05-26T02:15:53.160Z,64.40
2017-05-26T02:18:21.898Z,64.40
2017-05-26T02:20:50.234Z,64.40
2017-05-26T02:23:18.560Z,64.50
2017-05-26T02:25:47.123Z,64.40
2017-05-26T02:28:15.424Z,64.40
2017-05-26T02:30:43.760Z,64.50
2017-05-26T02:33:12.349Z,64.50
2017-05-26T02:35:40.720Z,64.60
2017-05-26T02:38:09.059Z,64.60
2017-05-26T02:40:38.052Z,64.60
2017-05-26T02:43:06.391Z,64.70
2017-05-26T02:45:34.717Z,64.80
2017-05-26T02:48:03.273Z,64.80
2017-05-26T02:50:31.622Z,65.10
2017-05-26T02:52:59.932Z,65.20
2017-05-26T02:55:28.529Z,65.30
2017-05-26T02:57:56.092Z,65.30
2017-05-26T03:00:24.408Z,65.30
2017-05-26T03:02:52.229Z,65.30
2017-05-26T03:05:20.547Z,65.40
2017-05-26T03:07:48.901Z,65.50
2017-05-26T03:10:17.487Z,65.40
2017-05-26T03:12:45.829Z,65.40
2017-05-26T03:15:14.168Z,65.40
2017-05-26T03:17:42.764Z,65.40
2017-05-26T03:20:11.088Z,65.50
2017-05-26T03:22:39.380Z,65.60
2017-05-26T03:25:08.011Z,65.60
2017-05-26T03:27:36.353Z,65.50
2017-05-26T03:30:04.676Z,65.60
2017-05-26T03:32:33.276Z,65.60
2017-05-26T03:35:01.636Z,65.60
2017-05-26T03:37:30.081Z,65.80
2017-05-26T03:39:58.623Z,65.80
2017-05-26T03:42:26.199Z,65.90
2017-05-26T03:44:54.595Z,65.70
2017-05-26T03:47:24.129Z,65.60
2017-05-26T03:49:52.547Z,65.50
2017-05-26T03:52:20.956Z,66.20
2017-05-26T03:54:49.662Z,65.50
2017-05-26T03:57:17.973Z,65.80
2017-05-26T03:59:46.320Z,65.90
2017-05-26T04:02:14.899Z,66.00
2017-05-26T04:04:43.213Z,66.00
2017-05-26T04:07:11.530Z,66.00
2017-05-26T04:09:40.101Z,66.10
2017-05-26T04:12:08.442Z,66.00
2017-05-26T04:14:36.782Z,65.90
2017-05-26T04:17:05.424Z,65.80
2017-05-26T04:19:33.054Z,65.90
2017-05-26T04:22:01.372Z,65.70
2017-05-26T04:24:29.915Z,65.60
2017-05-26T04:26:58.286Z,65.60
2017-05-26T04:29:26.611Z,65.50
2017-05-26T04:31:55.185Z,65.50
2017-05-26T04:34:23.517Z,65.50
2017-05-26T04:36:51.848Z,65.30
2017-05-26T04:39:20.402Z,65.30
2017-05-26T04:41:48.767Z,65.30
2017-05-26T04:44:17.073Z,65.40
2017-05-26T04:46:45.664Z,65.30
2017-05-26T04:49:13.997Z,65.30
2017-05-26T04:51:41.570Z,65.40
2017-05-26T04:54:10.324Z,65.30
2017-05-26T04:56:38.642Z,65.40
2017-05-26T04:59:06.972Z,65.50
2017-05-26T05:01:35.576Z,66.60
2017-05-26T05:04:03.195Z,65.50
2017-05-26T05:06:31.565Z,65.50
2017-05-26T05:09:00.162Z,65.60
2017-05-26T05:11:28.569Z,65.60
2017-05-26T05:13:56.908Z,65.60
2017-05-26T05:16:25.513Z,65.70
2017-05-26T05:18:53.839Z,65.70
2017-05-26T05:21:21.388Z,65.70
2017-05-26T05:23:49.202Z,65.70
2017-05-26T05:26:17.537Z,65.60
2017-05-26T05:28:45.854Z,65.70
2017-05-26T05:31:14.633Z,65.70
2017-05-26T05:33:42.948Z,65.80
2017-05-26T05:36:11.275Z,66.00
2017-05-26T05:38:39.060Z,66.10
2017-05-26T05:41:07.376Z,66.40
2017-05-26T05:43:35.702Z,66.50
2017-05-26T05:46:04.328Z,66.60
2017-05-26T05:48:31.894Z,66.50
2017-05-26T05:51:00.452Z,67.00
2017-05-26T05:53:29.042Z,66.80
2017-05-26T05:55:57.371Z,66.80
2017-05-26T05:58:26.061Z,66.90
2017-05-26T06:00:54.707Z,66.90
2017-05-26T06:03:22.320Z,67.00
2017-05-26T06:05:50.661Z,66.90
2017-05-26T06:08:19.446Z,66.70
2017-05-26T06:10:48.278Z,66.50
2017-05-26T06:13:16.843Z,66.50
2017-05-26T06:15:46.249Z,66.70
2017-05-26T06:18:15.165Z,66.80
2017-05-26T06:20:43.906Z,66.80
2017-05-26T06:23:12.489Z,66.60
2017-05-26T06:25:40.895Z,66.70
2017-05-26T06:28:09.238Z,66.60
2017-05-26T06:30:37.045Z,66.70
2017-05-26T06:33:05.394Z,66.70
2017-05-26T06:35:33.915Z,66.70
2017-05-26T06:38:02.557Z,66.50
2017-05-26T06:40:30.167Z,66.50
2017-05-26T06:42:59.390Z,66.30
2017-05-26T06:45:28.735Z,66.10
2017-05-26T06:47:57.238Z,65.80
2017-05-26T06:50:25.649Z,65.80
2017-05-26T06:52:54.430Z,65.90
2017-05-26T06:55:26.650Z,65.90
2017-05-26T06:58:01.944Z,65.50
2017-05-26T07:00:30.347Z,65.60
2017-05-26T07:02:58.958Z,65.60
2017-05-26T07:05:27.333Z,65.60
2017-05-26T07:07:55.666Z,65.50
2017-05-26T07:10:23.576Z,65.50
2017-05-26T07:12:52.512Z,65.60
2017-05-26T07:15:21.018Z,65.60
2017-05-26T07:17:49.662Z,65.50
2017-05-26T07:20:17.622Z,65.40
2017-05-26T07:22:45.565Z,65.70
2017-05-26T07:25:14.012Z,65.50
2017-05-26T07:27:42.963Z,64.60
2017-05-26T07:30:11.395Z,64.40
2017-05-26T07:32:40.409Z,64.40
2017-05-26T07:35:08.969Z,64.40
2017-05-26T07:37:37.304Z,64.20
2017-05-26T07:40:06.081Z,63.80
2017-05-26T07:42:36.217Z,63.50
2017-05-26T07:45:04.572Z,63.20
2017-05-26T07:47:33.135Z,62.90
2017-05-26T08:30:27.283Z,59.50
2017-05-26T08:33:02.761Z,59.20
2017-05-26T08:35:31.699Z,59.10
2017-05-26T08:38:00.075Z,58.90
2017-05-26T08:40:28.007Z,59.00
2017-05-26T08:42:57.000Z,58.80
2017-05-26T08:45:25.393Z,58.70
2017-05-26T08:47:53.757Z,58.70
2017-05-26T08:50:22.367Z,59.00
2017-05-26T08:52:50.723Z,58.20
2017-05-26T08:55:19.820Z,57.80
2017-05-26T08:57:48.423Z,57.40
2017-05-26T09:00:16.784Z,57.30
2017-05-26T09:02:45.129Z,57.20
2017-05-26T09:05:13.708Z,57.00
2017-05-26T09:07:42.098Z,57.20
2017-05-26T09:10:10.447Z,57.00
2017-05-26T09:12:39.136Z,57.20
2017-05-26T09:15:07.519Z,57.00
2017-05-26T09:17:35.892Z,57.10
2017-05-26T09:20:04.529Z,57.00
2017-05-26T09:22:33.555Z,57.00
2017-05-26T09:25:01.888Z,56.40
2017-05-26T09:27:30.520Z,56.30
2017-05-26T09:29:58.917Z,56.30
2017-05-26T09:32:26.542Z,56.30
2017-05-26T09:34:54.487Z,56.60
2017-05-26T09:37:22.863Z,56.30
2017-05-26T09:39:51.286Z,56.10
2017-05-26T09:42:19.965Z,56.00
2017-05-26T09:44:48.347Z,55.80
2017-05-26T09:47:16.689Z,55.50
2017-05-26T09:49:45.409Z,55.40
2017-05-26T09:52:13.790Z,55.60
2017-05-26T09:54:41.416Z,55.50
2017-05-26T09:57:22.357Z,55.30
2017-05-26T09:59:51.495Z,55.30
2017-05-26T10:02:19.113Z,55.40
2017-05-26T10:04:47.870Z,55.30
2017-05-26T10:07:16.440Z,55.30
2017-05-26T10:09:44.982Z,55.10
2017-05-26T10:12:15.293Z,54.60
2017-05-26T10:14:43.221Z,54.70
2017-05-26T10:17:11.772Z,54.10
2017-05-26T10:19:40.549Z,53.80
2017-05-26T10:22:08.955Z,54.10
2017-05-26T10:24:38.261Z,53.70
2017-05-26T10:27:06.906Z,53.50
2017-05-26T10:29:35.236Z,53.50
2017-05-26T10:32:03.602Z,53.20
2017-05-26T10:34:32.326Z,52.90
2017-05-26T10:37:00.764Z,52.90
2017-05-26T10:39:29.263Z,52.50
2017-05-26T10:41:57.858Z,52.70
2017-05-26T10:44:25.446Z,52.80
2017-05-26T10:46:53.980Z,51.90
2017-05-26T10:49:22.629Z,51.70
2017-05-26T10:51:51.016Z,51.60
2017-05-26T10:54:19.348Z,52.00
2017-05-26T10:56:47.990Z,52.40
2017-05-26T10:59:16.358Z,52.30
2017-05-26T11:01:44.760Z,52.00
2017-05-26T11:04:13.344Z,52.00
2017-05-26T11:06:41.744Z,51.70
2017-05-26T11:09:09.414Z,51.70
2017-05-26T11:11:38.016Z,50.70
2017-05-26T11:14:06.348Z,50.90
2017-05-26T11:16:35.631Z,50.80
2017-05-26T11:19:04.207Z,50.80
2017-05-26T11:21:32.539Z,50.70
2017-05-26T11:24:01.320Z,50.90
2017-05-26T11:26:29.906Z,51.00
2017-05-26T11:28:58.257Z,50.10
2017-05-26T11:31:25.957Z,50.10
2017-05-26T11:33:55.014Z,49.00
2017-05-26T11:36:24.057Z,48.00
2017-05-26T11:38:52.985Z,46.30
2017-05-26T11:41:21.928Z,45.70
2017-05-26T11:43:50.337Z,46.20
2017-05-26T11:46:19.172Z,46.40
2017-05-26T11:48:48.511Z,45.40
2017-05-26T11:51:17.076Z,45.10
2017-05-26T11:53:44.639Z,45.00
2017-05-26T11:56:13.259Z,43.80
2017-05-26T11:58:41.643Z,43.50
2017-05-26T12:01:09.974Z,44.00
2017-05-26T12:03:38.673Z,43.90
2017-05-26T12:06:07.044Z,43.10
2017-05-26T12:08:35.385Z,43.00
2017-05-26T12:11:04.695Z,42.50
2017-05-26T12:13:33.765Z,41.00
2017-05-26T12:16:02.471Z,40.60
2017-05-26T12:18:31.540Z,39.70
2017-05-26T12:20:59.305Z,39.80
2017-05-26T12:23:27.621Z,39.00
2017-05-26T12:25:56.231Z,39.10
2017-05-26T12:28:24.564Z,38.50
2017-05-26T12:30:52.940Z,38.30
2017-05-26T12:33:21.698Z,38.70
2017-05-26T12:35:50.097Z,38.70
2017-05-26T12:38:17.665Z,38.60
2017-05-26T12:40:46.240Z,37.00
2017-05-26T12:43:14.599Z,37.40
2017-05-26T12:45:42.960Z,37.60
2017-05-26T12:48:11.569Z,36.30
2017-05-26T12:50:39.891Z,36.10
2017-05-26T12:53:08.219Z,36.20
2017-05-26T12:55:36.803Z,36.90
2017-05-26T12:58:05.138Z,36.50
2017-05-26T13:00:32.965Z,36.50
2017-05-26T13:03:01.576Z,37.10
2017-05-26T13:05:29.941Z,36.80
2017-05-26T13:07:58.327Z,37.00
2017-05-26T13:10:26.178Z,37.00
2017-05-26T13:12:53.749Z,37.30
2017-05-26T13:15:22.086Z,34.70
2017-05-26T13:17:50.677Z,34.00
2017-05-26T13:20:19.161Z,33.90
2017-05-26T13:22:47.495Z,31.80
2017-05-26T13:25:16.060Z,31.40
2017-05-26T13:27:44.461Z,31.50
2017-05-26T13:30:12.812Z,32.20
2017-05-26T13:32:41.411Z,33.60
2017-05-26T13:35:09.000Z,33.50
2017-05-26T13:37:37.365Z,33.50
2017-05-26T13:40:05.391Z,33.50
2017-05-26T13:42:33.724Z,33.60
2017-05-26T13:45:02.045Z,33.50
2017-05-26T13:47:30.709Z,33.70
2017-05-26T13:49:59.027Z,34.30
2017-05-26T13:52:27.351Z,35.10
2017-05-26T13:54:55.950Z,35.00
2017-05-26T13:57:24.300Z,34.50
2017-05-26T13:59:52.602Z,33.70
2017-05-26T14:02:21.156Z,33.00
2017-05-26T14:04:49.479Z,32.50
2017-05-26T14:07:17.786Z,32.40
2017-05-26T14:09:46.581Z,33.10
2017-05-26T14:12:14.905Z,33.70
2017-05-26T14:14:43.385Z,32.80
2017-05-26T14:17:11.986Z,32.60
2017-05-26T14:19:40.302Z,32.80
2017-05-26T14:22:08.641Z,32.90
2017-05-26T14:24:36.631Z,32.90
2017-05-26T14:27:04.965Z,34.50
2017-05-26T14:29:32.565Z,34.50
2017-05-26T14:32:01.176Z,35.80
2017-05-26T14:34:28.729Z,35.20
2017-05-26T14:36:57.034Z,35.40
2017-05-26T14:39:25.662Z,35.40
2017-05-26T14:41:54.025Z,35.60
2017-05-26T14:44:22.351Z,35.70
2017-05-26T14:46:51.012Z,36.10
2017-05-26T14:49:19.329Z,35.70
2017-05-26T14:51:47.640Z,36.30
2017-05-26T14:54:16.251Z,36.40
2017-05-26T14:56:44.705Z,35.70
2017-05-26T14:59:13.037Z,34.20
2017-05-26T15:01:41.816Z,33.50
2017-05-26T15:04:10.138Z,32.70
2017-05-26T15:06:38.453Z,32.10
2017-05-26T15:09:07.029Z,31.30
2017-05-26T15:11:34.601Z,31.80
2017-05-26T15:14:03.611Z,30.00
2017-05-26T15:16:32.666Z,29.90
2017-05-26T15:19:01.223Z,29.70
2017-05-26T15:21:28.807Z,29.60
2017-05-26T15:23:56.671Z,29.90
2017-05-26T15:26:25.015Z,30.70
2017-05-26T15:28:53.318Z,31.10
2017-05-26T15:31:21.871Z,30.70
2017-05-26T15:33:50.189Z,30.60
2017-05-26T15:36:18.498Z,30.30
2017-05-26T15:38:47.073Z,30.00
2017-05-26T15:41:15.446Z,30.50
2017-05-26T15:43:43.763Z,31.00
2017-05-26T15:46:13.242Z,31.50
2017-05-26T15:48:40.862Z,31.50
2017-05-26T15:51:08.407Z,32.20
2017-05-26T15:53:36.243Z,32.00
2017-05-26T15:56:04.598Z,32.00
2017-05-26T15:58:32.918Z,31.50
2017-05-26T16:01:01.499Z,31.10
2017-05-26T16:03:29.822Z,30.80
2017-05-26T16:05:58.135Z,30.40
2017-05-26T16:08:26.895Z,30.00
2017-05-26T16:10:55.201Z,29.80
2017-05-26T16:13:23.518Z,29.60
2017-05-26T16:15:52.190Z,29.70
2017-05-26T16:18:20.504Z,29.90
2017-05-26T16:20:48.838Z,29.60
2017-05-26T16:23:17.611Z,29.70
2017-05-26T16:25:45.933Z,29.50
2017-05-26T16:28:14.284Z,29.20
2017-05-26T16:30:42.964Z,29.20
2017-05-26T16:33:10.531Z,29.20
2017-05-26T16:35:38.840Z,29.50
2017-05-26T16:38:07.474Z,29.50
2017-05-26T16:40:35.035Z,29.40
2017-05-26T16:43:03.355Z,29.40
2017-05-26T16:45:31.997Z,29.40
2017-05-26T16:48:00.324Z,29.30
2017-05-26T16:50:28.670Z,29.60
2017-05-26T16:52:57.253Z,30.00
2017-05-26T16:55:25.577Z,30.10
2017-05-26T16:57:53.934Z,30.30
2017-05-26T17:00:22.678Z,30.20
2017-05-26T17:02:50.995Z,30.00
2017-05-26T17:05:20.006Z,30.20
2017-05-26T17:07:48.653Z,31.10
2017-05-26T17:10:16.979Z,30.40
2017-05-26T17:12:44.602Z,30.40
2017-05-26T17:15:13.174Z,30.50
2017-05-26T17:17:41.490Z,30.40
2017-05-26T17:20:09.801Z,30.40
2017-05-26T17:22:38.432Z,30.30
2017-05-26T17:25:06.779Z,30.10
2017-05-26T17:27:35.124Z,30.30
2017-05-26T17:30:03.738Z,30.50
2017-05-26T17:32:32.107Z,30.60
2017-05-26T17:35:00.455Z,30.80
2017-05-26T17:37:29.192Z,31.00
2017-05-26T17:39:57.916Z,31.00
2017-05-26T17:42:26.223Z,31.20
2017-05-26T17:44:54.847Z,31.10
2017-05-26T17:47:23.174Z,31.20
2017-05-26T17:49:51.508Z,31.40
2017-05-26T17:52:19.481Z,31.40
2017-05-26T17:54:47.817Z,31.60
2017-05-26T17:57:16.139Z,31.90
2017-05-26T17:59:44.749Z,32.20
2017-05-26T18:02:12.392Z,32.20
2017-05-26T18:04:40.723Z,32.90
2017-05-26T18:07:09.330Z,33.40
2017-05-26T18:09:37.791Z,34.00
2017-05-26T18:12:06.152Z,34.30
2017-05-26T18:14:34.756Z,34.80
2017-05-26T18:17:03.129Z,35.30
2017-05-26T18:19:30.707Z,35.30
2017-05-26T18:21:59.488Z,36.20
2017-05-26T18:24:27.881Z,36.60
2017-05-26T18:26:56.246Z,37.10
2017-05-26T18:29:25.602Z,37.50
2017-05-26T18:31:54.172Z,37.90
2017-05-26T18:34:22.635Z,38.30
2017-05-26T18:36:51.260Z,38.60
2017-05-26T18:39:19.592Z,38.80
2017-05-26T18:41:47.952Z,39.20
2017-05-26T18:44:17.281Z,39.60
2017-05-26T18:46:45.612Z,39.90
2017-05-26T18:49:13.184Z,39.90
2017-05-26T18:51:41.806Z,40.60
2017-05-26T18:54:09.388Z,40.60
2017-05-26T18:56:37.811Z,41.30
2017-05-26T18:59:06.404Z,41.80
2017-05-26T19:01:34.566Z,41.80
2017-05-26T19:04:02.909Z,42.80
2017-05-26T19:06:31.624Z,43.00
2017-05-26T19:08:59.213Z,43.00
2017-05-26T19:11:27.548Z,43.80
2017-05-26T19:13:56.125Z,44.00
2017-05-26T19:16:24.480Z,44.40
2017-05-26T19:18:53.755Z,44.70
2017-05-26T19:21:22.509Z,45.10
2017-05-26T19:23:51.535Z,45.30
2017-05-26T19:26:20.197Z,45.70
2017-05-26T19:28:48.807Z,45.90
2017-05-26T19:31:17.185Z,46.20
2017-05-26T19:33:45.546Z,46.50
2017-05-26T19:36:14.238Z,46.70
2017-05-26T19:38:42.615Z,47.00
2017-05-26T19:41:10.985Z,50.30
2017-05-26T19:43:39.571Z,49.10
2017-05-26T19:46:07.939Z,48.80
2017-05-26T19:48:36.271Z,48.80
2017-05-26T19:51:05.174Z,48.90
2017-05-26T19:53:33.684Z,49.00
2017-05-26T19:56:02.519Z,49.20
2017-05-26T19:58:31.500Z,49.40
2017-05-26T20:01:00.145Z,50.10
2017-05-26T20:03:28.042Z,49.70
2017-05-26T20:05:57.299Z,49.90
2017-05-26T20:08:26.109Z,50.20
2017-05-26T20:10:55.765Z,50.40
2017-05-26T20:13:24.527Z,50.60
2017-05-26T20:15:52.987Z,50.80
2017-05-26T20:18:20.953Z,50.80
2017-05-26T20:20:48.967Z,51.10
2017-05-26T20:23:16.590Z,51.30
2017-05-26T20:25:45.431Z,51.50
2017-05-26T20:28:14.159Z,51.70
2017-05-26T20:30:42.828Z,51.80
2017-05-26T20:33:11.283Z,52.00
2017-05-26T20:35:40.331Z,52.20
2017-05-26T20:38:08.164Z,52.40
2017-05-26T20:40:36.560Z,52.60
2017-05-26T20:43:04.709Z,52.90
2017-05-26T20:45:33.189Z,52.90
2017-05-26T20:48:01.166Z,53.00
2017-05-26T20:50:29.254Z,53.10
2017-05-26T20:52:57.795Z,53.20
2017-05-26T20:55:26.274Z,53.40
2017-05-26T20:57:55.236Z,53.50
2017-05-26T21:00:23.697Z,53.60
2017-05-26T21:02:52.146Z,53.80
2017-05-26T21:05:20.930Z,53.90
2017-05-26T21:07:49.280Z,54.00
2017-05-26T21:10:17.607Z,54.10
2017-05-26T21:12:45.403Z,54.00
2017-05-26T21:15:13.724Z,54.40
2017-05-26T21:17:42.064Z,54.60
2017-05-26T21:20:10.771Z,54.60
2017-05-26T21:22:39.101Z,54.70
2017-05-26T21:25:07.425Z,54.90
2017-05-26T21:27:36.144Z,55.00
2017-05-26T21:30:04.461Z,55.00
2017-05-26T21:32:32.789Z,55.10
2017-05-26T21:35:01.362Z,55.10
2017-05-26T21:37:29.674Z,55.20
2017-05-26T21:39:58.046Z,55.20
2017-05-26T21:42:25.846Z,55.20
2017-05-26T21:44:54.213Z,55.30
2017-05-26T21:47:22.543Z,55.30
2017-05-26T21:49:50.335Z,55.30
2017-05-26T21:52:18.668Z,55.50
2017-05-26T21:54:47.005Z,55.60
2017-05-26T21:57:15.652Z,55.60
2017-05-26T21:59:43.959Z,55.80
2017-05-26T22:02:12.373Z,56.00
2017-05-26T22:04:40.966Z,56.10
2017-05-26T22:07:09.311Z,56.30
2017-05-26T22:09:37.659Z,56.50
2017-05-26T22:12:06.288Z,56.70
2017-05-26T22:14:33.859Z,56.70
2017-05-26T22:17:02.206Z,57.50
2017-05-26T22:19:30.835Z,57.00
2017-05-26T22:21:59.168Z,57.10
2017-05-26T22:24:27.485Z,57.30
2017-05-26T22:26:56.174Z,57.30
2017-05-26T22:29:24.502Z,57.50
2017-05-26T22:31:52.849Z,57.60
2017-05-26T22:34:21.434Z,57.80
2017-05-26T22:36:50.581Z,57.90
2017-05-26T22:39:18.918Z,58.00
2017-05-26T22:41:47.488Z,58.10
2017-05-26T22:44:15.802Z,58.30
2017-05-26T22:46:44.119Z,58.30
2017-05-26T22:49:12.706Z,58.50
2017-05-26T22:51:41.031Z,58.60
2017-05-26T22:54:09.376Z,58.70
2017-05-26T22:56:38.001Z,58.70
2017-05-26T22:59:06.316Z,58.70
2017-05-26T23:01:34.619Z,58.90
2017-05-26T23:04:03.427Z,59.10
2017-05-26T23:06:31.745Z,59.20
2017-05-26T23:09:00.122Z,59.30
2017-05-26T23:11:28.851Z,59.50
2017-05-26T23:13:58.056Z,59.60
2017-05-26T23:16:26.393Z,59.60
2017-05-26T23:18:54.974Z,59.80
2017-05-26T23:21:23.268Z,59.80
2017-05-26T23:23:51.589Z,59.90
2017-05-26T23:26:21.075Z,60.60
2017-05-26T23:28:49.417Z,60.10
2017-05-26T23:31:17.774Z,60.20
2017-05-26T23:33:46.514Z,60.40
2017-05-26T23:36:14.869Z,60.60
2017-05-26T23:38:43.211Z,60.70
2017-05-26T23:41:11.763Z,60.90
2017-05-26T23:43:40.080Z,61.10
2017-05-26T23:46:08.423Z,61.20
2017-05-26T23:48:37.097Z,61.30
2017-05-26T23:51:05.451Z,61.30
2017-05-26T23:53:33.903Z,61.30
2017-05-26T23:56:02.516Z,61.40
2017-05-26T23:58:30.845Z,61.50
